Time;durP1;ratioP1;P1;durP2;ratioP2;P2;SDS_P1;SDS_P2;PMS_P1;PMS_P2;Temp;Humidity;BMP_temperature;BMP_pressure;BME280_temperature;BME280_humidity;BME280_pressure;Samples;Min_cycle;Max_cycle;Signal;HPM_P1;HPM_P2
2021/04/02 00:01:08;;;;;;;8.85;6.50;;;12.00;45.70;;;;;;1483246;40;20149;-57
2021/04/02 00:02:30;;;;;;;10.73;6.57;;;12.00;46.00;;;;;;1480935;40;20080;-57
2021/04/02 00:03:51;;;;;;;8.15;5.82;;;12.00;45.80;;;;;;1486468;39;20155;-57
2021/04/02 00:05:17;;;;;;;6.88;6.18;;;12.00;45.80;;;;;;1485291;40;20060;-56
2021/04/02 00:06:38;;;;;;;7.88;5.80;;;12.00;46.00;;;;;;1482665;40;20282;-57
2021/04/02 00:07:59;;;;;;;8.38;5.88;;;12.00;45.80;;;;;;1480615;40;20179;-56
2021/04/02 00:09:20;;;;;;;9.70;6.05;;;11.90;45.90;;;;;;1484357;40;20421;-57
2021/04/02 00:10:50;;;;;;;9.77;6.00;;;11.90;46.00;;;;;;1481879;40;20064;-57
2021/04/02 00:12:11;;;;;;;7.45;5.57;;;11.90;46.40;;;;;;1486138;39;20173;-57
2021/04/02 00:13:52;;;;;;;7.82;5.80;;;11.90;45.90;;;;;;1485445;40;20060;-56
2021/04/02 00:15:19;;;;;;;6.97;5.18;;;11.90;46.50;;;;;;1482008;40;20144;-57
2021/04/02 00:16:40;;;;;;;7.53;5.60;;;11.90;46.10;;;;;;1483535;40;20165;-56
2021/04/02 00:18:01;;;;;;;7.45;5.32;;;11.80;45.90;;;;;;1485624;40;20065;-55
2021/04/02 00:19:22;;;;;;;6.75;5.38;;;11.80;45.90;;;;;;1484318;40;20310;-56
2021/04/02 00:20:43;;;;;;;6.88;5.38;;;11.80;45.90;;;;;;1483450;40;20068;-57
2021/04/02 00:22:04;;;;;;;8.48;5.35;;;11.80;46.10;;;;;;1482350;40;20293;-58
2021/04/02 00:23:26;;;;;;;6.40;5.22;;;11.80;46.10;;;;;;1482136;40;20155;-56
2021/04/02 00:24:46;;;;;;;10.50;5.85;;;11.70;46.10;;;;;;1486434;40;20171;-57
2021/04/02 00:26:12;;;;;;;10.18;5.43;;;11.70;46.20;;;;;;1483648;40;20072;-56
2021/04/02 00:27:33;;;;;;;7.00;5.28;;;11.70;46.30;;;;;;1482129;40;20370;-57
2021/04/02 00:28:56;;;;;;;6.82;4.70;;;11.70;46.40;;;;;;1485031;40;20084;-57
2021/04/02 00:30:21;;;;;;;5.55;4.72;;;11.70;46.50;;;;;;1482326;40;20159;-59
2021/04/02 00:31:42;;;;;;;5.78;4.75;;;11.60;46.50;;;;;;1483565;40;20142;-55
2021/04/02 00:33:04;;;;;;;7.00;4.80;;;11.60;46.40;;;;;;1484753;40;20084;-56
2021/04/02 00:34:25;;;;;;;7.22;5.18;;;11.60;46.50;;;;;;1485586;40;20072;-57
2021/04/02 00:35:46;;;;;;;5.55;5.05;;;11.60;46.50;;;;;;1485222;40;20371;-58
2021/04/02 00:37:07;;;;;;;7.65;5.43;;;11.60;46.50;;;;;;1485551;39;20175;-58
2021/04/02 00:38:29;;;;;;;5.88;5.07;;;11.50;46.50;;;;;;1483088;40;20141;-58
2021/04/02 00:39:49;;;;;;;6.05;5.15;;;11.50;46.70;;;;;;1486288;40;20142;-58
2021/04/02 00:41:16;;;;;;;8.75;5.18;;;11.50;46.70;;;;;;1484561;40;20049;-57
2021/04/02 00:42:37;;;;;;;4.47;4.07;;;11.50;46.90;;;;;;1478981;40;20069;-58
2021/04/02 00:43:58;;;;;;;6.47;5.07;;;11.50;46.70;;;;;;1482080;40;20068;-56
2021/04/02 00:45:21;;;;;;;8.18;5.20;;;11.40;46.70;;;;;;1476588;40;20324;-58
2021/04/02 00:46:42;;;;;;;5.47;4.68;;;11.50;46.90;;;;;;1480666;40;20517;-56
2021/04/02 00:48:04;;;;;;;5.53;4.65;;;11.50;46.90;;;;;;1482465;40;20132;-58
2021/04/02 00:49:25;;;;;;;7.18;5.05;;;11.40;46.90;;;;;;1479824;40;20200;-58
2021/04/02 00:50:48;;;;;;;9.65;5.10;;;11.40;46.80;;;;;;1481903;40;20076;-58
2021/04/02 00:52:09;;;;;;;5.45;4.93;;;11.40;47.00;;;;;;1486163;40;20092;-58
2021/04/02 00:53:35;;;;;;;8.90;4.40;;;11.40;47.00;;;;;;1479386;40;20145;-59
2021/04/02 00:54:55;;;;;;;5.85;4.50;;;11.40;47.10;;;;;;1483728;39;20060;-57
2021/04/02 00:56:18;;;;;;;5.88;4.63;;;11.30;46.90;;;;;;1481291;40;20071;-56
2021/04/02 00:57:39;;;;;;;6.30;4.75;;;11.30;47.00;;;;;;1480770;40;20063;-58
2021/04/02 00:59:00;;;;;;;5.10;4.60;;;11.30;46.90;;;;;;1486387;40;20181;-58
2021/04/02 01:00:21;;;;;;;6.40;4.57;;;11.30;47.00;;;;;;1481644;40;20077;-58
2021/04/02 01:01:42;;;;;;;6.38;4.95;;;11.30;47.00;;;;;;1483874;40;20127;-58
2021/04/02 01:03:04;;;;;;;5.82;4.70;;;11.30;47.00;;;;;;1480527;40;20060;-58
2021/04/02 01:04:24;;;;;;;7.95;5.20;;;11.30;47.10;;;;;;1480864;40;20061;-57
2021/04/02 01:05:47;;;;;;;8.75;4.85;;;11.30;47.10;;;;;;1480295;40;20052;-58
2021/04/02 01:07:08;;;;;;;6.72;4.43;;;11.30;47.20;;;;;;1485424;40;20103;-57
2021/04/02 01:08:32;;;;;;;6.13;4.50;;;11.30;47.20;;;;;;1486569;40;20474;-58
2021/04/02 01:09:53;;;;;;;7.10;4.57;;;11.20;47.30;;;;;;1485460;40;20053;-58
2021/04/02 01:11:17;;;;;;;6.57;4.60;;;11.20;47.10;;;;;;1485071;40;20138;-56
2021/04/02 01:12:38;;;;;;;4.80;4.40;;;11.20;47.20;;;;;;1485290;40;20415;-58
2021/04/02 01:13:59;;;;;;;7.13;4.30;;;11.20;47.20;;;;;;1483369;40;20457;-57
2021/04/02 01:15:28;;;;;;;10.13;4.13;;;11.20;47.20;;;;;;1482619;39;20068;-57
2021/04/02 01:16:49;;;;;;;5.53;4.22;;;11.20;47.40;;;;;;1489995;39;20067;-58
2021/04/02 01:18:37;;;;;;;6.25;4.30;;;11.10;47.10;;;;;;1485556;39;20064;-57
2021/04/02 01:19:59;;;;;;;6.20;4.10;;;11.10;47.70;;;;;;1483265;40;20167;-58
2021/04/02 01:21:41;;;;;;;5.93;4.22;;;11.10;47.20;;;;;;1483751;40;20096;-58
2021/04/02 01:23:09;;;;;;;5.55;4.30;;;11.10;47.40;;;;;;1488051;39;20358;-56
2021/04/02 01:24:45;;;;;;;5.32;4.10;;;11.10;47.30;;;;;;1483817;39;20269;-58
2021/04/02 01:26:31;;;;;;;4.90;3.67;;;11.10;47.40;;;;;;1484555;40;20060;-59
2021/04/02 01:28:12;;;;;;;5.97;4.13;;;11.10;47.90;;;;;;1487455;39;20088;-55
2021/04/02 01:29:39;;;;;;;5.00;3.90;;;11.10;47.70;;;;;;1482969;39;20100;-58
2021/04/02 01:31:01;;;;;;;7.45;4.15;;;11.10;47.30;;;;;;1488341;39;20204;-58
2021/04/02 01:32:43;;;;;;;8.20;4.22;;;11.10;47.20;;;;;;1488836;39;20063;-58
2021/04/02 01:34:05;;;;;;;4.85;4.15;;;11.00;47.70;;;;;;1490274;39;20413;-58
2021/04/02 01:35:38;;;;;;;6.50;4.15;;;11.00;47.00;;;;;;1484752;39;20067;-57
2021/04/02 01:37:08;;;;;;;4.47;4.00;;;11.00;47.40;;;;;;1490411;39;20136;-56
2021/04/02 01:38:32;;;;;;;;;;;11.00;47.40;;;;;;1484161;39;20088;-57
2021/04/02 01:39:56;;;;;;;4.82;3.28;;;11.00;47.30;;;;;;1490451;39;19930;-58
2021/04/02 01:41:19;;;;;;;4.90;3.58;;;11.00;46.70;;;;;;1484994;40;20258;-57
2021/04/02 01:42:43;;;;;;;5.07;3.78;;;11.00;46.90;;;;;;1485198;39;20443;-57
2021/04/02 01:44:05;;;;;;;4.40;4.00;;;11.00;47.60;;;;;;1490710;39;20506;-56
2021/04/02 01:45:28;;;;;;;7.18;4.15;;;11.00;47.20;;;;;;1486334;39;20262;-57
2021/04/02 01:46:50;;;;;;;4.35;3.72;;;10.90;47.30;;;;;;1487769;39;20166;-58
2021/04/02 01:48:13;;;;;;;7.25;3.95;;;10.90;47.30;;;;;;1489947;39;20415;-58
2021/04/02 01:49:37;;;;;;;6.50;4.10;;;10.90;47.50;;;;;;1487790;39;20314;-58
2021/04/02 01:50:59;;;;;;;8.10;4.38;;;10.90;47.50;;;;;;1490179;39;20056;-58
2021/04/02 01:52:23;;;;;;;5.47;3.72;;;10.80;47.40;;;;;;1481809;39;20064;-57
2021/04/02 01:53:48;;;;;;;5.28;3.90;;;10.80;47.60;;;;;;1488791;39;20154;-58
2021/04/02 01:55:11;;;;;;;4.65;3.85;;;10.80;47.60;;;;;;1489394;39;20059;-57
2021/04/02 01:56:33;;;;;;;5.63;4.22;;;10.80;47.60;;;;;;1484145;39;20383;-56
2021/04/02 01:57:55;;;;;;;5.50;4.03;;;10.80;47.60;;;;;;1487798;39;20177;-58
2021/04/02 01:59:17;;;;;;;4.13;3.70;;;10.80;47.60;;;;;;1489875;39;20060;-58
2021/04/02 02:00:43;;;;;;;5.88;3.88;;;10.80;47.80;;;;;;1485818;39;20459;-58
2021/04/02 02:02:04;;;;;;;6.40;4.18;;;10.70;47.90;;;;;;1485685;40;20052;-56
2021/04/02 02:03:27;;;;;;;5.20;3.78;;;10.70;47.80;;;;;;1485582;39;20265;-57
2021/04/02 02:04:49;;;;;;;5.20;3.80;;;10.70;47.90;;;;;;1481474;40;20056;-57
2021/04/02 02:06:11;;;;;;;6.95;4.03;;;10.70;47.90;;;;;;1487045;39;20359;-56
2021/04/02 02:07:35;;;;;;;6.10;4.32;;;10.70;47.90;;;;;;1486445;39;20048;-57
2021/04/02 02:08:57;;;;;;;5.05;3.92;;;10.70;47.90;;;;;;1484711;39;20080;-56
2021/04/02 02:10:20;;;;;;;6.13;4.05;;;10.70;48.00;;;;;;1480168;40;20065;-58
2021/04/02 02:11:43;;;;;;;6.15;4.20;;;10.70;48.10;;;;;;1483507;39;20080;-57
2021/04/02 02:13:06;;;;;;;4.03;3.72;;;10.70;48.00;;;;;;1485522;39;20370;-56
2021/04/02 02:14:32;;;;;;;5.97;3.75;;;10.60;48.10;;;;;;1484106;39;20057;-57
2021/04/02 02:15:54;;;;;;;5.38;4.03;;;10.60;48.20;;;;;;1485651;39;20087;-58
2021/04/02 02:17:20;;;;;;;5.07;4.13;;;10.60;48.10;;;;;;1490142;39;20179;-56
2021/04/02 02:18:43;;;;;;;4.88;4.28;;;10.60;48.40;;;;;;1484750;39;20063;-57
2021/04/02 02:20:09;;;;;;;6.05;4.15;;;10.60;48.30;;;;;;1486303;39;20311;-58
2021/04/02 02:21:30;;;;;;;4.55;3.85;;;10.60;48.50;;;;;;1484790;40;20150;-58
2021/04/02 02:22:57;;;;;;;6.10;4.30;;;10.60;48.40;;;;;;1485569;39;20071;-57
2021/04/02 02:24:18;;;;;;;4.88;4.28;;;10.60;48.70;;;;;;1482030;40;20088;-57
2021/04/02 02:25:39;;;;;;;6.03;4.13;;;10.60;48.60;;;;;;1485234;40;20102;-58
2021/04/02 02:27:02;;;;;;;6.15;4.55;;;10.60;48.60;;;;;;1480705;40;20069;-57
2021/04/02 02:28:23;;;;;;;4.82;4.30;;;10.60;48.70;;;;;;1484519;40;20061;-56
2021/04/02 02:29:45;;;;;;;6.18;4.10;;;10.50;48.70;;;;;;1485122;40;20324;-57
2021/04/02 02:31:07;;;;;;;4.88;4.07;;;10.50;48.70;;;;;;1484506;40;20061;-57
2021/04/02 02:32:28;;;;;;;6.07;4.22;;;10.60;48.80;;;;;;1486210;40;20137;-57
2021/04/02 02:33:49;;;;;;;5.85;4.25;;;10.60;48.90;;;;;;1481449;40;20152;-57
2021/04/02 02:35:10;;;;;;;8.30;4.45;;;10.50;48.80;;;;;;1483619;40;20092;-58
2021/04/02 02:36:32;;;;;;;7.40;4.45;;;10.60;49.10;;;;;;1485796;40;20185;-57
2021/04/02 02:37:56;;;;;;;5.22;4.13;;;10.60;49.20;;;;;;1485945;40;20087;-56
2021/04/02 02:39:18;;;;;;;4.68;3.75;;;10.60;49.30;;;;;;1486072;40;20052;-58
2021/04/02 02:40:39;;;;;;;4.90;3.97;;;10.60;49.20;;;;;;1483870;40;20063;-56
2021/04/02 02:42:05;;;;;;;4.75;4.15;;;10.60;49.30;;;;;;1485757;40;20060;-57
2021/04/02 02:43:26;;;;;;;6.25;4.32;;;10.60;49.60;;;;;;1481155;40;20049;-57
2021/04/02 02:44:47;;;;;;;4.45;4.05;;;10.60;49.30;;;;;;1485110;40;20083;-55
2021/04/02 02:46:08;;;;;;;5.68;3.80;;;10.60;49.30;;;;;;1484759;39;20068;-57
2021/04/02 02:47:29;;;;;;;7.40;4.47;;;10.70;49.40;;;;;;1482115;40;20053;-58
2021/04/02 02:48:52;;;;;;;9.15;4.63;;;10.70;49.40;;;;;;1484688;40;20052;-56
2021/04/02 02:50:18;;;;;;;5.63;3.90;;;10.70;49.50;;;;;;1485182;40;20068;-58
2021/04/02 02:51:42;;;;;;;6.55;4.68;;;10.70;49.70;;;;;;1484826;39;20173;-58
2021/04/02 02:53:05;;;;;;;5.32;4.25;;;10.70;49.50;;;;;;1484896;40;20140;-58
2021/04/02 02:54:28;;;;;;;4.93;3.95;;;10.80;49.50;;;;;;1485485;39;20076;-57
2021/04/02 02:55:50;;;;;;;4.70;4.00;;;10.70;49.40;;;;;;1485533;40;20333;-56
2021/04/02 02:57:14;;;;;;;4.82;4.20;;;10.80;49.40;;;;;;1485776;40;20230;-58
2021/04/02 02:58:38;;;;;;;7.63;4.30;;;10.70;49.40;;;;;;1485826;40;20504;-58
2021/04/02 03:00:03;;;;;;;4.38;3.97;;;10.70;49.50;;;;;;1484451;40;20430;-57
2021/04/02 03:01:26;;;;;;;4.93;3.90;;;10.70;49.40;;;;;;1479445;40;20053;-58
2021/04/02 03:02:50;;;;;;;4.85;4.07;;;10.70;49.40;;;;;;1483179;39;20412;-57
2021/04/02 03:04:14;;;;;;;6.60;4.68;;;10.70;49.50;;;;;;1483388;40;20052;-58
2021/04/02 03:05:36;;;;;;;5.05;4.15;;;10.70;49.50;;;;;;1485373;40;20185;-58
2021/04/02 03:06:59;;;;;;;7.25;4.32;;;10.70;49.50;;;;;;1484206;40;20213;-58
2021/04/02 03:08:22;;;;;;;7.38;4.43;;;10.70;49.70;;;;;;1484092;40;20064;-55
2021/04/02 03:09:45;;;;;;;6.22;5.45;;;10.70;49.80;;;;;;1485993;40;20242;-57
2021/04/02 03:11:09;;;;;;;6.13;4.30;;;10.70;49.90;;;;;;1480182;40;20148;-58
2021/04/02 03:12:33;;;;;;;6.28;4.38;;;10.70;49.80;;;;;;1484752;40;20064;-58
2021/04/02 03:13:56;;;;;;;7.60;4.50;;;10.70;49.80;;;;;;1485836;40;20677;-58
2021/04/02 03:15:19;;;;;;;7.20;4.38;;;10.70;49.80;;;;;;1485257;40;20068;-58
2021/04/02 03:16:47;;;;;;;5.43;4.28;;;10.70;49.90;;;;;;1485682;40;20173;-58
2021/04/02 03:18:10;;;;;;;5.70;4.40;;;10.70;50.00;;;;;;1485927;39;20076;-57
2021/04/02 03:19:33;;;;;;;8.05;4.13;;;10.70;49.90;;;;;;1485675;39;20107;-56
2021/04/02 03:20:56;;;;;;;7.57;4.47;;;10.70;49.90;;;;;;1489382;39;20165;-58
2021/04/02 03:22:18;;;;;;;5.97;4.38;;;10.70;49.90;;;;;;1489139;39;20063;-56
2021/04/02 03:23:42;;;;;;;6.70;4.40;;;10.70;49.90;;;;;;1487182;39;20059;-57
2021/04/02 03:25:10;;;;;;;8.27;4.65;;;10.70;50.00;;;;;;1489394;39;20072;-58
2021/04/02 03:26:32;;;;;;;4.45;3.92;;;10.70;50.70;;;;;;1486649;39;20057;-57
2021/04/02 03:27:54;;;;;;;4.65;4.10;;;10.70;49.90;;;;;;1490681;39;20082;-57
2021/04/02 03:29:15;;;;;;;5.45;3.92;;;10.70;49.90;;;;;;1486477;39;20052;-57
2021/04/02 03:30:37;;;;;;;5.68;4.60;;;10.70;50.00;;;;;;1486385;39;20234;-58
2021/04/02 03:32:01;;;;;;;4.90;4.45;;;10.70;50.10;;;;;;1490994;39;20079;-57
2021/04/02 03:33:27;;;;;;;6.85;4.68;;;10.70;50.20;;;;;;1489884;39;20071;-57
2021/04/02 03:34:51;;;;;;;8.63;4.88;;;10.70;50.20;;;;;;1488707;39;20052;-58
2021/04/02 03:36:13;;;;;;;6.72;4.28;;;10.70;50.90;;;;;;1489927;39;20491;-56
2021/04/02 03:37:36;;;;;;;6.68;4.90;;;10.70;50.20;;;;;;1490214;39;20056;-55
2021/04/02 03:38:57;;;;;;;5.22;4.18;;;10.70;50.20;;;;;;1490619;39;20276;-56
2021/04/02 03:40:21;;;;;;;4.38;3.95;;;10.70;50.20;;;;;;1490845;39;20087;-57
2021/04/02 03:41:43;;;;;;;6.32;4.50;;;10.70;50.50;;;;;;1489482;39;20074;-57
2021/04/02 03:43:06;;;;;;;4.90;4.45;;;10.70;50.40;;;;;;1490104;39;20100;-55
2021/04/02 03:44:32;;;;;;;5.30;4.43;;;10.70;50.50;;;;;;1490037;39;20060;-55
2021/04/02 03:45:54;;;;;;;6.47;4.30;;;10.70;50.60;;;;;;1488642;39;20986;-55
2021/04/02 03:47:19;;;;;;;4.85;4.18;;;10.70;50.30;;;;;;1490216;39;20656;-55
2021/04/02 03:48:41;;;;;;;6.00;4.25;;;10.70;50.50;;;;;;1487751;39;20103;-56
2021/04/02 03:50:06;;;;;;;8.15;4.43;;;10.70;50.30;;;;;;1488729;39;20142;-57
2021/04/02 03:51:29;;;;;;;6.63;4.15;;;10.70;50.50;;;;;;1490253;39;20036;-57
2021/04/02 03:52:58;;;;;;;4.97;4.07;;;10.70;50.30;;;;;;1489122;39;20142;-55
2021/04/02 03:54:20;;;;;;;5.88;3.67;;;10.70;50.70;;;;;;1490325;39;20064;-56
2021/04/02 03:55:45;;;;;;;6.00;4.20;;;10.70;50.40;;;;;;1489468;39;20059;-57
2021/04/02 03:57:07;;;;;;;8.40;4.93;;;10.70;50.40;;;;;;1489141;39;20075;-56
2021/04/02 03:58:30;;;;;;;4.32;3.92;;;10.70;50.40;;;;;;1486942;39;20076;-56
2021/04/02 03:59:53;;;;;;;5.57;4.28;;;10.70;50.40;;;;;;1489514;39;20103;-57
2021/04/02 04:01:20;;;;;;;5.28;3.88;;;10.70;50.50;;;;;;1489931;39;20087;-54
2021/04/02 04:02:44;;;;;;;7.10;4.45;;;10.70;50.60;;;;;;1489368;39;20060;-58
2021/04/02 04:04:06;;;;;;;4.95;4.20;;;10.70;50.40;;;;;;1490254;39;20096;-58
2021/04/02 04:05:28;;;;;;;9.27;4.18;;;10.70;50.40;;;;;;1490257;39;20071;-57
2021/04/02 04:06:53;;;;;;;5.53;4.40;;;10.70;50.40;;;;;;1490576;39;20659;-58
2021/04/02 04:08:16;;;;;;;6.32;4.20;;;10.80;50.60;;;;;;1490210;39;20083;-58
2021/04/02 04:09:40;;;;;;;10.43;4.72;;;10.70;50.50;;;;;;1489129;39;20168;-58
2021/04/02 04:11:03;;;;;;;5.13;3.97;;;10.70;50.50;;;;;;1490253;39;20060;-54
2021/04/02 04:12:25;;;;;;;7.80;4.30;;;10.70;50.90;;;;;;1487585;39;20367;-56
2021/04/02 04:13:49;;;;;;;6.68;4.28;;;10.70;50.40;;;;;;1488807;39;20055;-55
2021/04/02 04:15:14;;;;;;;6.13;4.03;;;10.70;50.50;;;;;;1489197;39;20139;-55
2021/04/02 04:16:38;;;;;;;8.32;4.18;;;10.70;50.70;;;;;;1489996;39;20080;-56
2021/04/02 04:18:00;;;;;;;4.32;3.92;;;10.70;50.60;;;;;;1490708;39;20244;-56
2021/04/02 04:19:23;;;;;;;6.53;4.00;;;10.70;50.60;;;;;;1490112;39;20048;-56
2021/04/02 04:20:44;;;;;;;6.35;4.68;;;10.70;50.60;;;;;;1485019;40;20208;-57
2021/04/02 04:22:06;;;;;;;6.28;3.70;;;10.70;50.50;;;;;;1488761;39;20063;-57
2021/04/02 04:23:29;;;;;;;3.88;3.47;;;10.70;50.50;;;;;;1490612;39;20052;-57
2021/04/02 04:24:51;;;;;;;5.97;3.70;;;10.70;50.70;;;;;;1489254;39;20052;-57
2021/04/02 04:26:14;;;;;;;6.18;3.97;;;10.70;50.70;;;;;;1490403;39;20056;-56
2021/04/02 04:27:38;;;;;;;5.38;4.25;;;10.70;50.70;;;;;;1490757;39;20071;-58
2021/04/02 04:29:01;;;;;;;6.95;4.22;;;10.70;50.60;;;;;;1490254;39;20060;-57
2021/04/02 04:30:25;;;;;;;8.77;4.20;;;10.70;50.70;;;;;;1490681;39;20052;-57
2021/04/02 04:31:48;;;;;;;6.35;4.10;;;10.70;50.70;;;;;;1490411;39;20056;-56
2021/04/02 04:33:09;;;;;;;5.30;4.18;;;10.70;50.70;;;;;;1489853;39;20094;-58
2021/04/02 04:34:31;;;;;;;7.45;4.25;;;10.70;50.70;;;;;;1490688;39;20241;-55
2021/04/02 04:35:53;;;;;;;4.38;3.97;;;10.70;50.70;;;;;;1490298;39;20063;-57
2021/04/02 04:37:22;;;;;;;4.15;3.65;;;10.60;50.70;;;;;;1489578;39;20379;-57
2021/04/02 04:38:44;;;;;;;6.72;4.07;;;10.70;50.80;;;;;;1489219;39;20048;-57
2021/04/02 04:40:08;;;;;;;7.53;4.40;;;10.70;50.80;;;;;;1489827;39;20283;-57
2021/04/02 04:41:29;;;;;;;5.85;3.88;;;10.70;50.80;;;;;;1485204;39;20052;-58
2021/04/02 04:42:50;;;;;;;7.13;4.72;;;10.70;50.90;;;;;;1488987;39;20271;-57
2021/04/02 04:44:13;;;;;;;6.03;4.30;;;10.60;50.90;;;;;;1490819;39;20066;-57
2021/04/02 04:45:34;;;;;;;6.20;3.75;;;10.60;50.90;;;;;;1489241;39;20060;-57
2021/04/02 04:46:56;;;;;;;7.25;4.68;;;10.60;50.90;;;;;;1488377;39;20137;-57
2021/04/02 04:48:16;;;;;;;7.93;4.35;;;10.60;50.90;;;;;;1489504;39;20180;-57
2021/04/02 04:49:37;;;;;;;7.13;4.20;;;10.60;51.00;;;;;;1489531;39;20149;-56
2021/04/02 04:50:59;;;;;;;6.88;4.13;;;10.60;51.00;;;;;;1488131;39;20072;-57
2021/04/02 04:52:21;;;;;;;8.98;4.45;;;10.60;51.00;;;;;;1489714;39;20099;-57
2021/04/02 04:53:45;;;;;;;7.70;4.50;;;10.60;51.00;;;;;;1490663;39;20059;-56
2021/04/02 04:55:09;;;;;;;10.65;4.22;;;10.60;51.10;;;;;;1490088;39;20075;-57
2021/04/02 04:56:31;;;;;;;6.32;4.32;;;10.60;51.20;;;;;;1489535;39;20363;-58
2021/04/02 04:57:54;;;;;;;7.82;4.47;;;10.60;51.20;;;;;;1484748;40;20056;-57
2021/04/02 04:59:17;;;;;;;7.68;4.57;;;10.60;51.20;;;;;;1485110;40;20182;-57
2021/04/02 05:00:40;;;;;;;7.15;4.03;;;10.60;51.20;;;;;;1490397;39;20154;-56
2021/04/02 05:02:03;;;;;;;5.95;4.15;;;10.60;51.20;;;;;;1490133;39;20066;-57
2021/04/02 05:03:26;;;;;;;7.38;4.35;;;10.60;51.40;;;;;;1487077;39;20096;-58
2021/04/02 05:04:50;;;;;;;6.53;4.50;;;10.60;51.40;;;;;;1490114;39;20056;-57
2021/04/02 05:06:13;;;;;;;8.55;4.55;;;10.60;51.40;;;;;;1489458;39;20560;-58
2021/04/02 05:07:37;;;;;;;7.63;4.30;;;10.60;51.40;;;;;;1488431;39;20095;-58
2021/04/02 05:09:00;;;;;;;9.65;4.72;;;10.60;51.40;;;;;;1490233;39;20056;-57
2021/04/02 05:10:22;;;;;;;5.55;4.25;;;10.60;51.40;;;;;;1487201;39;20332;-57
2021/04/02 05:11:45;;;;;;;7.57;4.78;;;10.60;51.40;;;;;;1488362;39;20056;-56
2021/04/02 05:13:06;;;;;;;8.52;4.68;;;10.60;51.50;;;;;;1489631;39;20268;-56
2021/04/02 05:14:29;;;;;;;6.57;5.07;;;10.60;51.40;;;;;;1486859;39;20057;-57
2021/04/02 05:15:50;;;;;;;7.57;5.05;;;10.60;51.40;;;;;;1487211;39;20060;-57
2021/04/02 05:17:13;;;;;;;8.18;5.32;;;10.60;51.40;;;;;;1489619;39;20060;-56
2021/04/02 05:18:35;;;;;;;12.43;5.97;;;10.60;51.40;;;;;;1490884;39;20071;-57
2021/04/02 05:19:57;;;;;;;9.98;6.53;;;10.60;51.40;;;;;;1489932;39;20268;-56
2021/04/02 05:21:18;;;;;;;8.48;6.07;;;10.60;51.50;;;;;;1489245;39;20074;-58
2021/04/02 05:22:39;;;;;;;9.68;5.68;;;10.60;51.50;;;;;;1488868;39;20051;-57
2021/04/02 05:24:00;;;;;;;9.05;5.63;;;10.60;51.50;;;;;;1490124;39;20064;-56
2021/04/02 05:25:21;;;;;;;10.55;6.05;;;10.50;51.50;;;;;;1489795;39;20211;-57
2021/04/02 05:26:42;;;;;;;9.77;5.57;;;10.60;51.50;;;;;;1489722;39;20152;-58
2021/04/02 05:28:05;;;;;;;8.38;5.38;;;10.60;51.60;;;;;;1490237;39;20071;-58
2021/04/02 05:29:26;;;;;;;8.98;5.72;;;10.60;51.60;;;;;;1488140;39;20287;-57
2021/04/02 05:30:47;;;;;;;8.80;5.57;;;10.60;51.60;;;;;;1489222;39;20050;-56
2021/04/02 05:32:08;;;;;;;7.95;5.88;;;10.60;51.60;;;;;;1489505;39;20088;-56
2021/04/02 05:33:29;;;;;;;9.93;6.40;;;10.60;51.50;;;;;;1488087;39;20052;-55
2021/04/02 05:34:50;;;;;;;11.13;6.35;;;10.60;51.60;;;;;;1488451;39;20085;-56
2021/04/02 05:36:11;;;;;;;13.15;7.15;;;10.50;51.60;;;;;;1490172;39;20114;-56
2021/04/02 05:37:32;;;;;;;9.95;6.78;;;10.60;51.70;;;;;;1486938;39;20076;-57
2021/04/02 05:38:53;;;;;;;14.60;6.70;;;10.50;51.50;;;;;;1490059;39;20048;-55
2021/04/02 05:40:15;;;;;;;11.05;6.72;;;10.60;51.60;;;;;;1488954;39;20134;-55
2021/04/02 05:41:45;;;;;;;10.38;6.60;;;10.50;51.80;;;;;;1483384;40;20250;-55
2021/04/02 05:43:16;;;;;;;9.60;5.80;;;10.60;52.00;;;;;;1488578;39;20260;-56
2021/04/02 05:44:38;;;;;;;11.98;6.72;;;10.50;51.90;;;;;;1489942;39;20056;-55
2021/04/02 05:46:01;;;;;;;10.23;6.18;;;10.60;51.70;;;;;;1490364;39;20257;-55
2021/04/02 05:47:25;;;;;;;10.90;5.78;;;10.60;51.70;;;;;;1486391;39;20253;-55
2021/04/02 05:48:46;;;;;;;9.30;6.13;;;10.60;51.60;;;;;;1488920;39;20120;-55
2021/04/02 05:50:09;;;;;;;9.68;5.85;;;10.60;51.60;;;;;;1488261;39;20395;-56
2021/04/02 05:51:30;;;;;;;9.35;5.50;;;10.60;51.60;;;;;;1489483;39;20048;-57
2021/04/02 05:52:54;;;;;;;9.52;5.70;;;10.60;51.60;;;;;;1488198;39;20083;-56
2021/04/02 05:54:22;;;;;;;11.80;6.30;;;10.60;51.80;;;;;;1489947;39;20052;-56
2021/04/02 05:55:44;;;;;;;13.00;7.68;;;10.60;51.80;;;;;;1487026;39;20064;-56
2021/04/02 05:57:06;;;;;;;17.55;8.90;;;10.60;51.60;;;;;;1485833;40;20060;-54
2021/04/02 05:58:27;;;;;;;20.83;11.23;;;10.60;51.70;;;;;;1489329;39;20098;-54
2021/04/02 05:59:49;;;;;;;24.83;13.45;;;10.60;51.70;;;;;;1490010;39;20357;-58
2021/04/02 06:01:10;;;;;;;22.75;12.98;;;10.60;51.70;;;;;;1484922;40;20157;-58
2021/04/02 06:02:31;;;;;;;24.90;13.07;;;10.60;51.70;;;;;;1486018;39;20067;-57
2021/04/02 06:03:54;;;;;;;22.10;14.30;;;10.60;51.80;;;;;;1490017;39;20097;-58
2021/04/02 06:05:16;;;;;;;27.90;16.20;;;10.60;51.90;;;;;;1490227;39;20089;-57
2021/04/02 06:06:38;;;;;;;28.35;15.98;;;10.70;52.00;;;;;;1487839;39;20428;-56
2021/04/02 06:07:59;;;;;;;28.85;17.05;;;10.70;52.00;;;;;;1490139;39;20095;-57
2021/04/02 06:09:21;;;;;;;36.33;18.90;;;10.70;51.90;;;;;;1489966;39;20056;-58
2021/04/02 06:10:42;;;;;;;32.03;18.73;;;10.70;52.00;;;;;;1489929;39;20060;-58
2021/04/02 06:12:03;;;;;;;31.65;18.48;;;10.70;52.00;;;;;;1489952;39;20060;-56
2021/04/02 06:13:24;;;;;;;33.72;17.55;;;10.80;52.00;;;;;;1485840;39;20049;-56
2021/04/02 06:14:45;;;;;;;29.38;16.98;;;10.80;51.90;;;;;;1489654;39;20342;-56
2021/04/02 06:16:06;;;;;;;29.13;17.40;;;10.80;51.90;;;;;;1489521;39;20194;-55
2021/04/02 06:17:27;;;;;;;29.77;16.63;;;10.80;51.90;;;;;;1486970;39;20052;-55
2021/04/02 06:18:48;;;;;;;27.83;15.73;;;10.80;51.90;;;;;;1489261;39;20165;-58
2021/04/02 06:20:10;;;;;;;25.85;15.63;;;10.80;51.90;;;;;;1489758;39;20055;-57
2021/04/02 06:21:31;;;;;;;26.98;15.73;;;10.80;51.80;;;;;;1488710;39;20192;-56
2021/04/02 06:23:21;;;;;;;28.23;15.00;;;10.80;51.80;;;;;;1489402;39;20275;-58
2021/04/02 06:24:45;;;;;;;28.55;14.13;;;10.80;52.10;;;;;;1487994;39;20642;-58
2021/04/02 06:26:10;;;;;;;24.75;14.20;;;10.90;51.70;;;;;;1484899;40;20155;-58
2021/04/02 06:27:30;;;;;;;25.25;14.32;;;10.90;51.70;;;;;;1488772;39;20267;-55
2021/04/02 06:28:52;;;;;;;23.63;14.77;;;10.90;51.70;;;;;;1490122;39;20139;-57
2021/04/02 06:30:16;;;;;;;23.85;14.18;;;10.90;51.80;;;;;;1489278;39;20064;-56
2021/04/02 06:31:42;;;;;;;22.60;13.65;;;10.90;51.90;;;;;;1490092;39;20059;-56
2021/04/02 06:33:05;;;;;;;24.08;13.65;;;11.00;51.90;;;;;;1489372;39;20396;-55
2021/04/02 06:34:27;;;;;;;23.13;13.02;;;11.00;51.70;;;;;;1486355;39;20049;-58
2021/04/02 06:35:48;;;;;;;26.00;13.65;;;11.00;51.70;;;;;;1489520;39;20404;-57
2021/04/02 06:37:09;;;;;;;25.98;15.23;;;11.00;51.70;;;;;;1489668;39;20345;-55
2021/04/02 06:38:32;;;;;;;24.75;14.82;;;11.00;51.70;;;;;;1486282;39;20052;-58
2021/04/02 06:39:53;;;;;;;21.92;13.65;;;11.00;51.80;;;;;;1488311;39;20074;-55
2021/04/02 06:41:15;;;;;;;24.58;13.27;;;11.00;51.70;;;;;;1489192;39;20064;-58
2021/04/02 06:42:36;;;;;;;20.05;13.48;;;11.00;51.70;;;;;;1489610;39;20059;-58
2021/04/02 06:44:02;;;;;;;23.48;12.60;;;11.00;51.70;;;;;;1488110;39;20290;-57
2021/04/02 06:45:23;;;;;;;19.15;12.60;;;11.00;51.80;;;;;;1489024;39;20084;-58
2021/04/02 06:46:44;;;;;;;19.73;11.85;;;11.00;51.70;;;;;;1488855;39;20219;-55
2021/04/02 06:48:10;;;;;;;22.73;11.57;;;11.00;51.70;;;;;;1489385;39;20078;-58
2021/04/02 06:49:31;;;;;;;18.67;11.00;;;11.00;51.90;;;;;;1485268;40;20249;-58
2021/04/02 06:50:55;;;;;;;20.48;10.95;;;11.10;51.70;;;;;;1487752;39;20060;-56
2021/04/02 06:52:18;;;;;;;22.98;12.18;;;11.10;51.90;;;;;;1489739;39;20408;-57
2021/04/02 06:53:40;;;;;;;18.65;11.27;;;11.10;51.90;;;;;;1487033;39;20064;-58
2021/04/02 06:55:01;;;;;;;21.52;11.80;;;11.10;51.80;;;;;;1489459;39;20304;-57
2021/04/02 06:56:22;;;;;;;21.27;11.80;;;11.10;51.80;;;;;;1486485;39;20091;-55
2021/04/02 06:57:49;;;;;;;22.10;12.05;;;11.10;51.80;;;;;;1489432;39;20052;-57
2021/04/02 06:59:17;;;;;;;23.00;11.60;;;11.10;51.90;;;;;;1489840;39;20368;-58
2021/04/02 07:00:40;;;;;;;24.02;13.23;;;11.10;51.90;;;;;;1487205;39;20060;-57
2021/04/02 07:02:03;;;;;;;21.35;13.13;;;11.10;51.90;;;;;;1490209;39;20349;-56
2021/04/02 07:03:24;;;;;;;22.83;13.48;;;11.10;51.80;;;;;;1486310;39;20056;-56
2021/04/02 07:04:48;;;;;;;24.10;14.57;;;11.10;51.80;;;;;;1490095;39;20362;-57
2021/04/02 07:06:10;;;;;;;20.67;13.05;;;11.10;51.80;;;;;;1490187;39;20060;-54
2021/04/02 07:07:33;;;;;;;24.65;14.48;;;11.20;51.80;;;;;;1489632;39;20052;-58
2021/04/02 07:08:54;;;;;;;26.48;14.38;;;11.20;51.80;;;;;;1490588;39;20072;-57
2021/04/02 07:10:16;;;;;;;25.20;14.95;;;11.20;51.80;;;;;;1490160;39;20387;-57
2021/04/02 07:11:38;;;;;;;22.83;13.70;;;11.20;51.80;;;;;;1482625;40;20555;-55